Time;durP1;ratioP1;P1;durP2;ratioP2;P2;SDS_P1;SDS_P2;PMS_P1;PMS_P2;Temp;Humidity;BMP_temperature;BMP_pressure;BME280_temperature;BME280_humidity;BME280_pressure;Samples;Min_cycle;Max_cycle;Signal;HPM_P1;HPM_P2
2024/04/06 00:02:13;;;;;;;2.08;1.10;;;;;;;-144.05;74.73;56980.53;5029477;28;20087;-86
2024/04/06 00:04:41;;;;;;;2.80;0.80;;;13.00;99.90;;;-144.05;75.13;56974.16;5030765;28;20148;-86
2024/04/06 00:07:08;;;;;;;1.40;0.77;;;;;;;-144.05;75.31;56980.53;5038059;28;20567;-87
2024/04/06 00:09:35;;;;;;;2.90;0.80;;;;;;;-144.05;75.34;56967.78;5032586;28;20121;-87
2024/04/06 00:12:03;;;;;;;2.55;1.10;;;;;;;-144.05;75.60;56991.13;5033722;28;20034;-85
2024/04/06 00:14:30;;;;;;;3.40;1.40;;;;;;;-144.05;75.71;56980.53;5034231;28;20036;-87
2024/04/06 00:16:57;;;;;;;4.20;0.90;;;;;;;-144.05;76.31;56991.13;5033625;28;20029;-86
2024/04/06 00:19:22;;;;;;;4.70;0.90;;;12.50;99.90;;;-144.05;76.54;56967.78;5032533;28;20034;-85
2024/04/06 00:21:49;;;;;;;3.72;1.42;;;;;;;-144.05;76.70;56967.78;5027185;28;20044;-86
2024/04/06 00:24:16;;;;;;;1.50;0.80;;;;;;;-144.05;76.33;56972.03;5028081;28;20571;-86
2024/04/06 00:26:44;;;;;;;5.75;1.05;;;;;;;-144.05;77.08;56967.78;5044228;28;20044;-87
2024/04/06 00:29:10;;;;;;;2.80;1.00;;;;;;;-144.05;77.51;56955.03;5028673;28;20033;-88
2024/04/06 00:31:36;;;;;;;2.95;1.00;;;;;;;-144.05;77.32;56993.25;5026055;28;20030;-88
2024/04/06 00:34:03;;;;;;;2.38;0.70;;;;;;;-144.05;77.72;56976.28;5044456;28;20025;-87
2024/04/06 00:36:30;;;;;;;3.10;1.27;;;;;;;-144.05;77.87;56978.41;5031779;28;20025;-85
2024/04/06 00:38:56;;;;;;;2.67;0.82;;;16.50;99.90;;;-144.05;77.77;56991.13;5032634;28;20033;-85
2024/04/06 00:41:23;;;;;;;4.13;1.10;;;;;;;-144.05;77.76;56980.53;5015301;28;20029;-86
2024/04/06 00:43:49;;;;;;;3.58;1.00;;;;;;;-144.05;78.40;56967.78;5027079;28;20026;-86
2024/04/06 00:46:16;;;;;;;4.78;1.27;;;15.20;99.90;;;-144.05;78.43;56972.03;5021009;28;20124;-86
2024/04/06 00:48:45;;;;;;;3.05;1.17;;;;;;;-144.05;78.71;56989.00;5048179;28;20471;-88
2024/04/06 00:51:12;;;;;;;2.95;1.35;;;;;;;-144.05;79.47;56961.41;5031867;28;20120;-87
2024/04/06 00:53:39;;;;;;;4.78;1.23;;;;;;;-144.05;79.52;56963.53;5031569;28;20025;-86
2024/04/06 00:56:06;;;;;;;5.82;1.25;;;16.30;99.90;;;-144.05;79.35;56946.53;5033033;28;20041;-84
2024/04/06 00:58:32;;;;;;;2.67;1.25;;;;;;;-144.05;79.31;56965.66;5031823;28;20021;-87
2024/04/06 01:00:59;;;;;;;3.70;1.17;;;;;;;-144.05;79.67;56969.91;5032857;28;20033;-85
2024/04/06 01:03:26;;;;;;;3.60;1.10;;;;;;;-144.05;80.44;56961.41;5031645;28;20045;-85
2024/04/06 01:05:52;;;;;;;4.55;1.20;;;;;;;-144.05;80.57;56972.03;5025918;28;20057;-86
2024/04/06 01:08:18;;;;;;;3.67;1.40;;;;;;;-144.05;80.65;56972.03;5046859;28;20025;-83
2024/04/06 01:10:45;;;;;;;5.82;1.13;;;;;;;-144.05;81.34;56976.28;5045271;28;20044;-87
2024/04/06 01:13:11;;;;;;;2.28;1.08;;;16.40;99.90;;;-144.05;81.78;56986.91;5031370;28;20028;-86
2024/04/06 01:15:37;;;;;;;3.25;1.52;;;;;;;-144.05;81.38;56952.91;5030212;28;20029;-85
2024/04/06 01:18:04;;;;;;;4.20;1.77;;;16.00;99.90;;;-144.05;80.77;56991.13;5021336;28;20443;-86
2024/04/06 01:20:34;;;;;;;4.85;1.48;;;11.80;99.90;;;-144.05;81.35;56984.78;5028120;28;20621;-88
2024/04/06 01:23:00;;;;;;;4.70;1.10;;;12.60;99.90;;;-144.05;81.83;56974.16;5026934;28;20037;-85
2024/04/06 01:25:26;;;;;;;3.22;0.95;;;;;;;-144.05;82.02;56957.16;5024155;28;20029;-87
2024/04/06 01:27:52;;;;;;;3.53;1.50;;;16.10;99.90;;;-144.05;82.35;56967.78;5030808;28;20037;-86
2024/04/06 01:30:18;;;;;;;3.60;1.50;;;;;;;-144.05;82.52;56986.91;5030713;28;20128;-86
2024/04/06 01:32:53;;;;;;;4.10;1.40;;;11.60;99.90;;;-144.05;82.83;56976.28;5024477;28;20029;-87
2024/04/06 01:35:19;;;;;;;5.03;1.40;;;16.00;99.90;;;-144.05;83.51;56969.91;5027166;28;20469;-86
2024/04/06 01:37:45;;;;;;;4.93;2.03;;;;;;;-144.05;83.36;56959.28;5027507;28;20033;-86
2024/04/06 01:40:12;;;;;;;2.88;1.52;;;12.00;99.90;;;-144.05;83.24;56997.50;5026692;28;20438;-86
2024/04/06 01:42:39;;;;;;;3.00;1.38;;;;;;;-144.05;83.54;56989.00;5024388;28;20063;-87
2024/04/06 01:45:08;;;;;;;3.67;1.52;;;;;;;-144.05;83.19;56961.41;5016065;28;20037;-87
2024/04/06 01:47:34;;;;;;;3.63;1.33;;;11.80;99.90;;;-144.05;83.19;56976.28;5029476;28;20141;-86
2024/04/06 01:50:06;;;;;;;3.28;1.17;;;14.40;99.90;;;-144.05;82.94;56972.03;5022994;28;20053;-87
2024/04/06 01:52:32;;;;;;;3.88;1.70;;;;;;;-144.05;84.09;56974.16;5020855;28;20036;-86
2024/04/06 01:55:05;;;;;;;4.70;2.20;;;14.20;99.90;;;-144.05;84.57;56974.16;5027417;28;20479;-88
2024/04/06 01:57:31;;;;;;;6.25;2.63;;;;;;;-144.05;84.41;56969.91;5025043;28;20031;-87
2024/04/06 01:59:58;;;;;;;5.18;2.90;;;;;;;-144.05;84.42;56982.66;5030977;28;20035;-87
2024/04/06 02:02:24;;;;;;;5.88;2.45;;;;;;;-144.05;84.56;56957.16;5030544;28;20053;-86
2024/04/06 02:04:51;;;;;;;2.83;1.40;;;;;;;-144.05;85.01;56967.78;5030720;28;20029;-85
2024/04/06 02:07:17;;;;;;;3.08;1.42;;;14.00;99.90;;;-144.05;85.29;56972.03;5026077;28;20430;-87
2024/04/06 02:09:44;;;;;;;3.85;1.42;;;;;;;-144.05;84.94;56955.03;5037415;28;20510;-87
2024/04/06 02:12:10;;;;;;;2.88;1.10;;;;;;;-144.05;85.17;56986.91;5046156;28;20399;-85
2024/04/06 02:14:36;;;;;;;5.70;1.30;;;11.50;99.90;;;-144.05;85.48;56980.53;5026214;28;20029;-86
2024/04/06 02:17:03;;;;;;;3.97;1.48;;;11.80;99.90;;;-144.05;85.25;56967.78;5022058;28;20036;-86
2024/04/06 02:19:30;;;;;;;1.98;1.30;;;;;;;-144.05;85.67;56972.03;5025683;28;20507;-85
2024/04/06 02:21:56;;;;;;;3.63;1.75;;;14.00;99.90;;;-144.05;85.78;56982.66;5027149;28;20120;-86
2024/04/06 02:24:22;;;;;;;4.80;1.52;;;;;;;-144.05;85.50;56972.03;5023096;28;20034;-84
2024/04/06 02:26:49;;;;;;;3.50;1.50;;;;;;;-144.05;85.42;56974.16;5030523;28;20084;-85
2024/04/06 02:29:15;;;;;;;2.08;1.45;;;;;;;-144.05;85.41;56972.03;5027575;28;20052;-87
2024/04/06 02:31:42;;;;;;;4.93;1.10;;;;;;;-144.05;85.41;56972.03;5025613;28;20033;-86
2024/04/06 02:34:08;;;;;;;4.03;1.27;;;;;;;-144.05;84.21;56980.53;5034111;28;20029;-86
2024/04/06 02:36:35;;;;;;;3.17;1.60;;;;;;;-144.05;83.66;56942.28;5032161;28;20030;-85
2024/04/06 02:39:03;;;;;;;3.17;1.60;;;13.90;99.90;;;-144.05;82.55;56974.16;5030501;28;20056;-86
2024/04/06 02:41:30;;;;;;;3.58;1.48;;;;;;;-144.05;83.34;56991.13;5027458;28;20036;-87
2024/04/06 02:43:56;;;;;;;3.13;1.30;;;;;;;-144.05;82.66;56982.66;5034117;28;20033;-88
2024/04/06 02:46:22;;;;;;;2.20;1.42;;;;;;;-144.05;83.05;56969.91;5031557;28;20464;-88
2024/04/06 02:48:49;;;;;;;2.17;1.25;;;;;;;-144.05;84.32;56980.53;5027098;28;20041;-89
2024/04/06 02:51:16;;;;;;;3.85;1.38;;;;;;;-144.05;83.61;56972.03;5019969;28;20042;-86
2024/04/06 02:53:42;;;;;;;2.40;1.17;;;15.20;99.90;;;-144.05;84.35;56989.00;5032245;28;20059;-87
2024/04/06 02:56:09;;;;;;;3.30;1.42;;;;;;;-144.05;83.42;56972.03;5031083;28;20026;-87
2024/04/06 02:58:35;;;;;;;4.50;2.17;;;;;;;-144.05;84.82;56980.53;5029523;28;20022;-86
2024/04/06 03:01:02;;;;;;;2.88;1.02;;;;;;;-144.05;84.59;56965.66;5030979;28;20025;-87
2024/04/06 03:03:28;;;;;;;4.25;1.42;;;;;;;-144.05;84.11;56974.16;5026183;28;20371;-88
2024/04/06 03:05:54;;;;;;;4.40;1.33;;;;;;;-144.05;85.09;56969.91;5042257;28;20018;-85
2024/04/06 03:08:21;;;;;;;3.67;1.45;;;;;;;-144.05;86.08;56969.91;5034151;28;20038;-88
2024/04/06 03:10:47;;;;;;;3.75;1.65;;;;;;;-144.05;87.23;56991.13;5014572;28;20048;-86
2024/04/06 03:13:13;;;;;;;2.78;1.40;;;;;;;-144.05;87.48;56978.41;5016625;28;20100;-84
2024/04/06 03:15:40;;;;;;;3.70;1.50;;;;;;;-144.05;86.94;56989.00;5032888;28;20083;-86
2024/04/06 03:18:06;;;;;;;2.22;1.13;;;;;;;-144.05;86.95;56978.41;5034660;28;20071;-90
2024/04/06 03:20:32;;;;;;;2.92;1.35;;;11.50;99.90;;;-144.05;87.00;56986.91;5056496;28;20072;-86
2024/04/06 03:23:04;;;;;;;3.10;1.50;;;13.90;99.90;;;-144.05;87.62;56967.78;5059399;28;20022;-83
2024/04/06 03:25:33;;;;;;;3.63;1.45;;;;;;;-144.05;87.00;56972.03;5073527;28;20026;-84
2024/04/06 03:27:59;;;;;;;3.50;1.55;;;;;;;-144.05;86.77;56963.53;5050523;28;20077;-83
2024/04/06 03:30:26;;;;;;;3.28;1.30;;;;;;;-144.05;86.92;56984.78;5046708;28;20064;-84
2024/04/06 03:32:53;;;;;;;4.05;1.48;;;;;;;-144.05;86.76;56967.78;5050140;28;20048;-84
2024/04/06 03:35:21;;;;;;;3.28;1.40;;;;;;;-144.05;86.79;56961.41;5037668;28;20036;-87
2024/04/06 03:37:48;;;;;;;1.40;1.25;;;13.90;99.90;;;-144.05;86.62;56986.91;5050764;28;20029;-86
2024/04/06 03:40:18;;;;;;;4.50;1.42;;;15.10;99.90;;;-144.05;86.38;56993.25;5033515;28;20034;-86
2024/04/06 03:42:58;;;;;;;3.00;1.23;;;15.30;99.90;;;-144.05;87.16;56967.78;5023443;28;20480;-85
2024/04/06 03:45:26;;;;;;;3.65;1.17;;;;;;;-144.05;87.27;56989.00;5023291;28;20077;-86
2024/04/06 03:47:53;;;;;;;5.13;1.35;;;;;;;-144.05;86.87;56976.28;5033289;28;20025;-87
2024/04/06 03:50:20;;;;;;;4.22;1.30;;;;;;;-144.05;86.57;56967.78;5031563;28;20329;-86
2024/04/06 03:52:48;;;;;;;2.72;1.35;;;11.30;99.90;;;-144.05;86.86;56965.66;5024579;28;20065;-86
2024/04/06 03:55:15;;;;;;;2.13;1.33;;;13.20;99.90;;;-144.05;86.30;57006.00;5024091;28;20034;-86
2024/04/06 03:57:41;;;;;;;2.30;1.48;;;;;;;-144.05;87.50;56952.91;5032249;28;20021;-86
2024/04/06 04:00:08;;;;;;;5.30;1.70;;;;;;;-144.05;87.84;56984.78;5032065;28;20045;-87
2024/04/06 04:02:37;;;;;;;3.33;1.63;;;14.30;99.90;;;-144.05;88.08;56984.78;5025616;28;20030;-85
2024/04/06 04:05:04;;;;;;;6.90;1.70;;;;;;;-144.05;88.11;56963.53;5024629;28;20388;-85
2024/04/06 04:07:33;;;;;;;4.28;1.30;;;;;;;-144.05;87.68;56965.66;5032146;28;20071;-88
2024/04/06 04:10:01;;;;;;;3.10;1.38;;;13.50;99.90;;;-144.05;87.53;56982.66;5025117;28;20034;-87
2024/04/06 04:12:29;;;;;;;4.88;1.30;;;10.30;99.90;;;-144.05;88.25;56980.53;5029690;28;20124;-85
2024/04/06 04:14:57;;;;;;;3.45;1.50;;;11.40;99.90;;;-144.05;88.17;57001.75;5031429;28;20340;-85
2024/04/06 04:17:24;;;;;;;2.42;1.40;;;;;;;-144.05;89.38;56980.53;5025560;28;20022;-86
2024/04/06 04:19:50;;;;;;;3.03;1.30;;;;;;;-144.05;89.08;56976.28;5027363;28;20076;-85
2024/04/06 04:22:16;;;;;;;2.13;1.33;;;;;;;-144.05;89.41;56959.28;5029042;28;20422;-87
2024/04/06 04:24:42;;;;;;;4.18;2.03;;;14.50;99.90;;;-144.05;89.13;56995.38;5031916;28;20584;-87
2024/04/06 04:27:09;;;;;;;2.78;1.20;;;;;;;-144.05;89.03;56974.16;5033551;28;20560;-85
2024/04/06 04:29:34;;;;;;;2.33;1.30;;;10.10;99.90;;;-144.05;89.47;56967.78;5031071;28;20076;-85
2024/04/06 04:32:03;;;;;;;4.53;1.60;;;15.00;99.90;;;-144.05;89.01;56969.91;5030359;28;20140;-86
2024/04/06 04:34:30;;;;;;;3.15;1.52;;;10.50;99.90;;;-144.05;90.11;56976.28;5022974;28;20076;-85
2024/04/06 04:36:57;;;;;;;2.53;1.15;;;;;;;-144.05;90.15;56965.66;5018375;28;20534;-84
2024/04/06 04:39:23;;;;;;;5.30;1.60;;;;;;;-144.05;89.48;56972.03;5027093;28;20599;-86
2024/04/06 04:41:52;;;;;;;3.60;1.52;;;11.10;99.90;;;-144.05;89.67;57003.88;5026359;28;20504;-87
2024/04/06 04:44:18;;;;;;;4.57;1.38;;;;;;;-144.05;89.35;56982.66;5045252;28;20040;-87
2024/04/06 04:46:45;;;;;;;5.07;1.80;;;;;;;-144.05;89.18;56974.16;5032181;28;20048;-87
2024/04/06 04:49:11;;;;;;;4.28;1.27;;;;;;;-144.05;89.28;56969.91;5023321;28;20476;-88
2024/04/06 04:51:37;;;;;;;3.92;1.45;;;;;;;-144.05;89.17;56963.53;5044529;28;20034;-86
2024/04/06 04:54:05;;;;;;;4.95;1.40;;;13.30;99.90;;;-144.05;89.00;56969.91;5023561;28;20041;-86
2024/04/06 04:56:31;;;;;;;4.78;1.48;;;;;;;-144.05;89.03;56957.16;5030837;28;20033;-88
2024/04/06 04:58:58;;;;;;;4.22;1.63;;;;;;;-144.05;88.64;56980.53;5036641;28;20025;-85
2024/04/06 05:01:24;;;;;;;4.38;1.88;;;;;;;-144.05;88.16;56946.53;5041965;28;20037;-88
2024/04/06 05:03:50;;;;;;;2.45;1.33;;;;;;;-144.05;88.10;56957.16;5049663;28;20043;-83
2024/04/06 05:06:17;;;;;;;3.97;1.63;;;;;;;-144.05;87.74;56982.66;5052177;28;20432;-85
2024/04/06 05:08:43;;;;;;;4.78;1.60;;;14.80;99.90;;;-144.05;87.58;56982.66;5040510;28;20043;-86
2024/04/06 05:11:09;;;;;;;2.67;1.50;;;;;;;-144.05;87.13;56974.16;5030195;28;20487;-85
2024/04/06 05:13:35;;;;;;;4.95;1.42;;;;;;;-144.05;87.57;56957.16;5022490;28;20033;-86
2024/04/06 05:16:01;;;;;;;4.88;1.65;;;;;;;-144.05;86.93;56980.53;5024898;28;20061;-85
2024/04/06 05:18:30;;;;;;;3.00;1.48;;;;;;;-144.05;86.67;56950.78;5043826;28;20062;-85
2024/04/06 05:21:00;;;;;;;2.55;1.50;;;13.40;99.90;;;-144.05;86.37;56967.78;5030520;28;20442;-86
2024/04/06 05:23:27;;;;;;;2.95;1.65;;;;;;;-144.05;86.27;56972.03;5022607;28;20102;-87
2024/04/06 05:25:55;;;;;;;3.17;1.35;;;;;;;-144.05;86.52;56974.16;5027105;28;20021;-87
2024/04/06 05:28:25;;;;;;;6.75;1.30;;;;;;;-144.05;86.14;56986.91;5030617;28;20030;-87
2024/04/06 05:30:52;;;;;;;2.08;1.27;;;;;;;-144.05;85.91;56969.91;5030782;28;20059;-85
2024/04/06 05:33:22;;;;;;;2.13;1.60;;;13.50;99.90;;;-144.05;85.38;56965.66;5030201;28;20041;-84
2024/04/06 05:35:50;;;;;;;4.13;1.50;;;13.60;99.90;;;-144.05;84.92;56972.03;5022030;28;20037;-87
2024/04/06 05:38:18;;;;;;;4.45;1.35;;;14.70;99.90;;;-144.05;84.34;56967.78;5030842;28;20049;-84
2024/04/06 05:40:46;;;;;;;7.07;1.65;;;14.10;99.90;;;-144.05;83.38;56980.53;5022244;28;20490;-85
2024/04/06 05:43:13;;;;;;;4.28;1.70;;;13.80;99.90;;;-144.05;82.92;56986.91;5046366;28;20026;-86
2024/04/06 05:45:42;;;;;;;1.88;1.13;;;;;;;-144.05;82.31;56967.78;5029455;28;20118;-85
2024/04/06 05:48:09;;;;;;;1.40;1.20;;;15.30;99.90;;;-144.05;81.94;56957.16;5025145;28;20405;-86
2024/04/06 05:50:44;;;;;;;3.80;1.85;;;14.10;99.90;;;-144.05;81.48;56989.00;5028586;28;20484;-83
2024/04/06 05:53:11;;;;;;;4.30;1.67;;;;;;;-144.05;81.13;56982.66;5029821;28;20053;-85
2024/04/06 05:55:37;;;;;;;3.30;1.73;;;;;;;-144.05;80.41;56961.41;5029369;28;20051;-85
2024/04/06 05:58:05;;;;;;;3.85;1.58;;;;;;;-144.05;79.70;56980.53;5031225;28;20066;-85
2024/04/06 06:00:31;;;;;;;4.75;1.63;;;15.30;99.90;;;-144.05;79.20;56965.66;5021507;28;20041;-84
2024/04/06 06:02:57;;;;;;;10.27;1.50;;;;;;;-144.05;78.00;56955.03;5030393;28;20052;-85
2024/04/06 06:05:23;;;;;;;1.83;1.25;;;;;;;-144.05;77.12;56957.16;5030021;28;20498;-85
2024/04/06 06:07:50;;;;;;;5.30;1.45;;;16.40;99.90;;;-144.05;75.69;56965.66;5050099;28;20426;-86
2024/04/06 06:10:16;;;;;;;6.60;1.42;;;16.20;99.90;;;-144.05;74.59;56963.53;5034441;28;20124;-86
2024/04/06 06:12:43;;;;;;;4.63;1.30;;;;;;;-144.05;74.37;56980.53;5034740;28;20036;-86
2024/04/06 06:15:10;;;;;;;4.18;1.60;;;;;;;-144.05;73.30;56980.53;5019683;28;20088;-86
2024/04/06 06:17:36;;;;;;;3.65;1.33;;;12.70;99.90;;;-144.05;73.01;56972.03;5033256;28;20025;-87
2024/04/06 06:20:07;;;;;;;3.55;1.00;;;;;;;-144.05;71.91;56974.16;5034284;28;20537;-86
2024/04/06 06:22:33;;;;;;;7.30;1.38;;;;;;;-144.05;71.53;56950.78;5034236;28;20029;-87
2024/04/06 06:25:00;;;;;;;3.72;1.27;;;;;;;-144.05;70.88;56978.41;5025669;28;20052;-85
2024/04/06 06:27:26;;;;;;;5.55;1.48;;;;;;;-144.05;70.91;56963.53;5035380;28;20049;-86
2024/04/06 06:29:53;;;;;;;3.15;1.63;;;;;;;-144.05;71.07;56969.91;5051695;28;20034;-85
2024/04/06 06:32:19;;;;;;;2.97;1.50;;;;;;;-144.05;71.62;56991.13;5026305;28;20052;-87
2024/04/06 06:34:45;;;;;;;2.95;1.40;;;16.40;99.90;;;-144.05;71.54;56986.91;5026383;28;20026;-85
2024/04/06 06:37:12;;;;;;;4.40;1.38;;;;;;;-144.05;71.37;56989.00;5035334;28;20128;-84
2024/04/06 06:39:39;;;;;;;5.55;1.58;;;;;;;-144.05;72.06;56961.41;5033673;28;20045;-86
2024/04/06 06:42:09;;;;;;;4.35;1.60;;;;;;;-144.05;72.11;56980.53;5026306;28;20021;-87
2024/04/06 06:44:36;;;;;;;3.63;1.10;;;;;;;-144.05;71.80;56959.28;5015605;28;20029;-85
2024/04/06 06:47:02;;;;;;;5.00;1.13;;;;;;;-144.05;72.09;56976.28;5022364;28;20052;-84
2024/04/06 06:49:29;;;;;;;10.00;1.95;;;;;;;-144.05;71.37;56963.53;5031850;28;20021;-87
2024/04/06 06:51:55;;;;;;;6.45;1.60;;;;;;;-144.05;70.30;56980.53;5034043;28;20109;-86
2024/04/06 06:54:26;;;;;;;2.20;1.33;;;16.30;99.90;;;-144.05;68.81;56963.53;5020095;28;20036;-88
2024/04/06 06:56:51;;;;;;;3.05;1.30;;;17.80;99.90;;;-144.05;68.31;56974.16;5028791;28;20128;-84
2024/04/06 06:59:18;;;;;;;2.95;1.20;;;;;;;-144.05;67.12;56978.41;5035253;28;20025;-88
2024/04/06 07:01:44;;;;;;;4.28;1.33;;;;;;;-144.05;66.42;56965.66;5034461;28;20014;-83
2024/04/06 07:04:12;;;;;;;5.72;1.80;;;;;;;-144.05;65.54;56963.53;5059075;28;20036;-84
2024/04/06 07:06:38;;;;;;;2.58;1.30;;;;;;;-144.05;65.04;56976.28;5036614;28;20059;-85
2024/04/06 07:09:04;;;;;;;5.03;1.73;;;18.90;99.90;;;-144.05;64.64;56986.91;5022298;28;20470;-86
2024/04/06 07:11:31;;;;;;;5.53;1.65;;;;;;;-144.05;65.09;56961.41;5037622;28;20061;-85
2024/04/06 07:13:58;;;;;;;5.82;1.45;;;;;;;-144.05;65.17;57001.75;5031427;28;20029;-84
2024/04/06 07:16:25;;;;;;;4.53;1.23;;;;;;;-144.05;66.05;56997.50;5038594;28;20640;-86
2024/04/06 07:18:51;;;;;;;3.33;1.60;;;;;;;-144.05;66.05;56974.16;5036556;28;20029;-84
2024/04/06 07:21:18;;;;;;;4.97;1.77;;;;;;;-144.05;66.48;57010.25;5037190;28;20029;-88
2024/04/06 07:23:44;;;;;;;4.72;1.48;;;16.90;99.90;;;-144.05;66.98;56974.16;5037907;28;20029;-83
2024/04/06 07:26:11;;;;;;;3.63;1.55;;;;;;;-144.05;65.92;56991.13;5039332;28;20037;-83
2024/04/06 07:28:38;;;;;;;3.97;1.42;;;;;;;-144.05;64.99;56986.91;5017133;28;20057;-87
2024/04/06 07:31:08;;;;;;;2.00;1.33;;;;;;;-144.05;64.60;56982.66;5025499;28;20022;-85
2024/04/06 07:33:34;;;;;;;3.28;1.30;;;15.70;99.90;;;-144.05;63.26;56991.13;5019546;28;20092;-87
2024/04/06 07:36:00;;;;;;;3.25;1.38;;;;;;;-144.05;61.14;56972.03;5042602;28;20030;-86
2024/04/06 07:38:26;;;;;;;2.28;1.45;;;;;;;-144.05;60.20;57010.25;5024875;28;20055;-87
2024/04/06 07:41:06;;;;;;;7.13;1.40;;;18.40;99.90;;;-144.05;60.38;57003.88;5031575;28;20026;-88
2024/04/06 07:43:32;;;;;;;3.97;1.60;;;;;;;-144.05;60.27;57003.88;5035087;28;20054;-85
2024/04/06 07:45:58;;;;;;;2.25;1.45;;;;;;;-144.05;60.18;56999.63;5017759;28;20065;-86
2024/04/06 07:48:25;;;;;;;4.45;1.30;;;;;;;-144.05;59.84;56986.91;5017127;28;20030;-85
2024/04/06 07:50:51;;;;;;;3.80;1.20;;;;;;;-144.05;58.71;56980.53;5036071;28;20352;-87
2024/04/06 07:53:18;;;;;;;5.20;1.23;;;;;;;-144.05;58.66;56974.16;5036937;28;20498;-83
2024/04/06 07:55:50;;;;;;;2.20;1.13;;;;;;;-144.05;57.89;56989.00;5033094;28;20097;-89
2024/04/06 07:58:16;;;;;;;3.83;1.20;;;;;;;-144.05;57.79;57006.00;5023710;28;20028;-87
2024/04/06 08:00:47;;;;;;;4.03;1.30;;;;;;;-144.05;57.12;57003.88;5027538;28;20036;-86
2024/04/06 08:03:13;;;;;;;5.18;1.33;;;;;;;-144.05;57.34;57008.13;5032660;28;20084;-86
2024/04/06 08:05:39;;;;;;;6.35;1.63;;;;;;;-144.05;57.14;56978.41;5026631;28;20209;-88
2024/04/06 08:08:07;;;;;;;3.28;1.40;;;;;;;-144.05;57.00;56991.13;5032820;28;20037;-86
2024/04/06 08:10:33;;;;;;;3.00;1.33;;;;;;;-144.05;57.18;56972.03;5054423;28;20029;-87
2024/04/06 08:13:00;;;;;;;2.63;1.15;;;;;;;-144.05;56.72;56999.63;5025122;28;20081;-85
2024/04/06 08:15:26;;;;;;;2.95;1.27;;;;;;;-144.05;55.41;57010.25;5050019;28;20037;-86
2024/04/06 08:17:53;;;;;;;4.63;1.17;;;;;;;-144.05;55.13;56991.13;5027884;28;20129;-87
2024/04/06 08:20:20;;;;;;;2.88;1.00;;;;;;;-144.05;54.73;56995.38;5030610;28;20089;-87
2024/04/06 08:22:46;;;;;;;5.72;1.25;;;;;;;-144.05;54.08;56997.50;5039115;28;20193;-89
2024/04/06 08:25:13;;;;;;;3.25;1.50;;;;;;;-144.05;54.87;57008.13;5037137;28;20042;-86
2024/04/06 08:27:50;;;;;;;5.25;1.52;;;;;;;-144.05;53.79;57006.00;5030078;28;20495;-89
2024/04/06 08:30:16;;;;;;;4.32;1.55;;;;;;;-144.05;52.04;57010.25;5021664;28;20037;-87
2024/04/06 08:32:43;;;;;;;3.22;1.50;;;;;;;-144.05;52.24;57006.00;5031540;28;20056;-85
2024/04/06 08:35:14;;;;;;;4.05;1.70;;;;;;;-144.05;52.43;57027.25;5022883;28;20037;-84
2024/04/06 08:37:42;;;;;;;5.50;1.40;;;20.90;99.90;;;-144.05;52.77;57027.25;5034212;28;20410;-84
2024/04/06 08:40:13;;;;;;;7.70;1.30;;;;;;;-144.05;50.10;57020.88;5022045;28;20439;-84
2024/04/06 08:42:44;;;;;;;5.45;1.45;;;21.30;99.90;;;-144.05;49.89;57018.75;5035047;28;20026;-84
2024/04/06 08:45:12;;;;;;;3.75;1.08;;;21.30;99.90;;;-144.05;49.28;57023.00;5048078;28;20033;-88
2024/04/06 08:47:41;;;;;;;4.28;1.10;;;;;;;-144.05;47.52;57003.88;5036036;28;20032;-83
2024/04/06 08:50:14;;;;;;;2.70;1.50;;;;;;;-144.05;46.59;57029.38;5017253;28;20026;-87
2024/04/06 08:52:45;;;;;;;3.25;1.00;;;;;;;-144.05;46.46;57042.13;5024894;28;20030;-87
2024/04/06 08:55:12;;;;;;;3.15;1.10;;;;;;;-144.05;45.44;57042.13;5030591;28;20029;-87
2024/04/06 08:57:40;;;;;;;1.48;1.10;;;;;;;-144.05;44.68;57023.00;5027098;28;20036;-86
2024/04/06 09:00:11;;;;;;;6.75;1.20;;;;;;;-144.05;43.27;57050.63;5050204;28;20048;-84
2024/04/06 09:02:38;;;;;;;6.85;1.30;;;23.30;99.90;;;-144.05;43.63;57040.00;5054474;28;20032;-82
2024/04/06 09:05:10;;;;;;;4.75;1.10;;;;;;;-144.05;42.13;57035.75;5044950;28;20131;-88
2024/04/06 09:08:05;;;;;;;4.75;1.17;;;;;;;-144.05;42.52;57025.13;5035274;28;20049;-86
2024/04/06 09:10:42;;;;;;;3.47;1.17;;;;;;;-144.05;41.45;57040.00;5039338;28;20136;-87
2024/04/06 09:13:09;;;;;;;3.28;1.02;;;;;;;-144.05;42.24;57067.59;5032111;28;20076;-88
2024/04/06 09:15:36;;;;;;;2.22;1.10;;;;;;;-144.05;40.91;57050.63;5033149;28;20034;-88
2024/04/06 09:18:03;;;;;;;4.78;1.20;;;;;;;-144.05;39.93;57044.25;5031229;28;20030;-87
2024/04/06 09:20:29;;;;;;;2.97;1.20;;;;;;;-144.05;39.85;57048.50;5030826;28;20026;-88
2024/04/06 09:22:57;;;;;;;3.75;1.40;;;;;;;-144.05;40.45;57056.97;5023798;28;20108;-86
2024/04/06 09:25:23;;;;;;;2.88;1.30;;;;;;;-144.05;39.05;57056.97;5036378;28;20026;-84
2024/04/06 09:27:49;;;;;;;4.15;1.10;;;23.90;99.90;;;-144.05;38.96;57069.72;5038089;28;20030;-86
2024/04/06 09:30:24;;;;;;;2.05;1.00;;;;;;;-144.05;38.88;57056.97;5037487;28;20032;-86
2024/04/06 09:32:55;;;;;;;3.50;1.20;;;;;;;-144.05;38.17;57065.47;5039355;28;20026;-90
2024/04/06 09:35:22;;;;;;;4.38;1.23;;;;;;;-144.05;37.79;57048.50;5037292;28;20060;-85
2024/04/06 09:37:51;;;;;;;5.85;1.50;;;23.00;99.90;;;-144.05;38.01;57061.22;5028815;28;20025;-86
2024/04/06 09:40:23;;;;;;;5.28;1.27;;;23.00;99.90;;;-144.05;37.79;57076.09;5036480;28;20040;-85
2024/04/06 09:42:55;;;;;;;6.53;1.33;;;;;;;-144.05;37.30;57073.97;5016713;28;20021;-87
2024/04/06 09:45:22;;;;;;;1.10;0.90;;;;;;;-144.05;37.04;57061.22;5034038;28;20030;-86
2024/04/06 09:47:50;;;;;;;3.35;0.98;;;;;;;-144.05;37.55;57063.34;5033020;28;20046;-88
2024/04/06 09:50:22;;;;;;;3.60;1.10;;;;;;;-144.05;37.81;57076.09;5016831;28;20113;-87
2024/04/06 09:52:50;;;;;;;3.83;1.20;;;;;;;-144.05;37.23;57076.09;5032717;28;20144;-86
2024/04/06 09:55:26;;;;;;;3.15;1.15;;;;;;;-144.05;36.63;57110.09;5015604;28;20030;-87
2024/04/06 09:58:01;;;;;;;1.83;1.00;;;;;;;-144.05;36.51;57078.22;5016155;28;20029;-87
2024/04/06 10:00:28;;;;;;;2.38;1.00;;;;;;;-144.05;36.51;57065.47;5023491;28;20034;-87
2024/04/06 10:03:05;;;;;;;;;;;;;;;;;;;;;
2024/04/06 10:05:44;;;;;;;5.60;1.20;;;;;;;-144.05;36.21;57080.34;5029829;28;20559;-87
2024/04/06 10:08:17;;;;;;;3.05;1.30;;;;;;;-144.05;35.71;57067.59;5034306;28;20033;-88
2024/04/06 10:10:48;;;;;;;1.88;1.05;;;24.10;97.90;;;-144.05;35.80;57069.72;5033006;28;20025;-86
2024/04/06 10:13:25;;;;;;;2.67;1.15;;;24.40;97.30;;;-144.05;35.36;57090.97;5025330;28;20029;-89
2024/04/06 10:15:52;;;;;;;4.05;1.23;;;;;;;-144.05;35.89;57107.97;5053884;28;20049;-87
2024/04/06 10:18:19;;;;;;;1.80;1.10;;;;;;;-144.05;34.68;57101.59;5024172;28;20026;-89
2024/04/06 10:20:45;;;;;;;1.48;0.80;;;;;;;-144.05;34.38;57114.34;5033083;28;20033;-87
2024/04/06 10:23:13;;;;;;;4.60;1.23;;;24.60;95.70;;;-144.05;34.71;57078.22;5024920;28;20025;-88
2024/04/06 10:25:45;;;;;;;3.15;1.08;;;;;;;-144.05;34.84;57103.72;5039550;28;20038;-86
2024/04/06 10:28:12;;;;;;;3.47;1.25;;;;;;;-144.05;34.92;57093.09;5025307;28;20060;-86
2024/04/06 10:30:40;;;;;;;2.15;1.05;;;24.60;94.20;;;-144.05;34.22;57078.22;5025025;28;20032;-86
2024/04/06 10:33:08;;;;;;;2.13;0.93;;;;;;;-144.05;33.61;57122.84;5027806;28;20033;-84
2024/04/06 10:35:34;;;;;;;2.10;1.02;;;;;;;-144.05;33.24;57120.72;5016761;28;20439;-87
2024/04/06 10:38:02;;;;;;;3.45;1.15;;;;;;;-144.05;33.08;57097.34;5022207;28;20368;-85
2024/04/06 10:40:37;;;;;;;2.13;1.05;;;;;;;-144.05;33.44;57124.97;5030629;28;20037;-87
2024/04/06 10:43:03;;;;;;;6.45;1.63;;;;;;;-144.05;34.29;57090.97;5026618;28;20053;-87
2024/04/06 10:45:36;;;;;;;2.40;1.10;;;;;;;-144.05;34.02;57112.22;5019560;28;20030;-86
2024/04/06 10:48:02;;;;;;;2.83;0.90;;;;;;;-144.05;34.38;57101.59;5035544;28;20029;-87
2024/04/06 10:50:29;;;;;;;2.53;1.20;;;;;;;-144.05;33.84;57107.97;5032389;28;20140;-86
2024/04/06 10:52:59;;;;;;;3.30;1.02;;;;;;;-144.05;32.85;57103.72;5036269;28;20033;-87
2024/04/06 10:55:26;;;;;;;3.55;1.15;;;;;;;-144.05;32.95;57101.59;5038950;28;20429;-86
2024/04/06 10:57:56;;;;;;;1.92;0.85;;;24.40;90.10;;;-144.05;33.20;57103.72;5039011;28;20053;-86
2024/04/06 11:00:23;;;;;;;2.70;1.42;;;;;;;-144.05;33.02;57103.72;5026247;28;20030;-86